createdAt,value
2023-02-11T00:01:23.437Z,5.30
2023-02-11T00:03:53.755Z,5.27
2023-02-11T00:06:24.141Z,5.29
2023-02-11T00:08:54.200Z,5.31
2023-02-11T00:11:26.589Z,5.29
2023-02-11T00:13:56.533Z,5.31
2023-02-11T00:16:29.933Z,5.41
2023-02-11T00:19:01.437Z,5.45
2023-02-11T00:21:32.033Z,5.56
2023-02-11T00:24:02.910Z,5.62
2023-02-11T00:26:35.637Z,5.75
2023-02-11T00:29:06.736Z,5.84
2023-02-11T00:31:39.521Z,5.82
2023-02-11T00:34:09.637Z,5.78
2023-02-11T00:36:39.548Z,5.75
2023-02-11T00:39:11.201Z,5.68
2023-02-11T00:41:41.212Z,5.63
2023-02-11T00:44:11.192Z,5.66
2023-02-11T00:46:43.968Z,5.67
2023-02-11T00:49:14.456Z,5.68
2023-02-11T00:51:44.940Z,5.68
2023-02-11T00:54:15.873Z,5.73
2023-02-11T00:56:46.536Z,5.72
2023-02-11T00:59:16.548Z,5.71
2023-02-11T01:01:49.920Z,5.70
2023-02-11T01:04:19.918Z,5.77
2023-02-11T01:06:49.961Z,5.77
2023-02-11T01:09:21.210Z,5.72
2023-02-11T01:11:51.340Z,5.63
2023-02-11T01:14:21.236Z,5.53
2023-02-11T01:16:56.243Z,5.57
2023-02-11T01:19:26.271Z,5.62
2023-02-11T01:21:56.320Z,5.56
2023-02-11T01:24:26.311Z,5.55
2023-02-11T01:26:56.293Z,5.54
2023-02-11T01:29:27.728Z,5.53
2023-02-11T01:32:00.874Z,5.60
2023-02-11T01:34:30.984Z,5.60
2023-02-11T01:37:01.680Z,5.66
2023-02-11T01:39:35.476Z,5.70
2023-02-11T01:42:05.782Z,5.65
2023-02-11T01:44:38.247Z,5.72
2023-02-11T01:47:11.264Z,5.83
2023-02-11T01:49:44.681Z,5.80
2023-02-11T01:52:20.461Z,5.80
2023-02-11T01:55:09.191Z,5.74
2023-02-11T01:57:42.581Z,5.81
2023-02-11T02:00:17.099Z,5.77
2023-02-11T02:02:57.776Z,5.82
2023-02-11T02:05:35.433Z,5.92
2023-02-11T02:08:12.614Z,5.93
2023-02-11T02:10:46.062Z,5.81
2023-02-11T02:13:16.314Z,5.76
2023-02-11T02:15:53.035Z,5.77
2023-02-11T02:18:38.839Z,5.89
2023-02-11T02:21:50.456Z,5.91
2023-02-11T02:24:47.335Z,5.99
2023-02-11T02:27:36.073Z,6.09
2023-02-11T02:30:38.754Z,6.03
2023-02-11T02:33:37.863Z,6.08
2023-02-11T02:36:25.985Z,6.01
2023-02-11T02:39:00.733Z,6.00
2023-02-11T02:41:33.690Z,6.07
2023-02-11T02:44:04.771Z,6.10
2023-02-11T02:46:36.653Z,6.15
2023-02-11T02:49:13.750Z,6.26
2023-02-11T02:52:07.057Z,6.25
2023-02-11T02:55:06.917Z,6.30
2023-02-11T02:57:47.858Z,6.44
2023-02-11T03:00:26.642Z,6.54
2023-02-11T03:03:11.587Z,6.53
2023-02-11T03:05:52.890Z,6.62
2023-02-11T03:08:30.381Z,6.72
2023-02-11T03:11:03.475Z,6.73
2023-02-11T03:13:36.840Z,6.73
2023-02-11T03:16:12.305Z,6.74
2023-02-11T03:18:47.149Z,6.72
2023-02-11T03:21:22.902Z,6.72
2023-02-11T03:23:56.502Z,6.74
2023-02-11T03:26:33.482Z,6.85
2023-02-11T03:29:07.485Z,6.82
2023-02-11T03:31:43.006Z,6.84
2023-02-11T03:34:16.133Z,6.82
2023-02-11T03:36:53.984Z,6.84
2023-02-11T03:39:27.639Z,6.90
2023-02-11T03:42:01.170Z,6.86
2023-02-11T03:44:36.114Z,6.88
2023-02-11T03:47:08.620Z,6.74
2023-02-11T03:49:41.338Z,6.70
2023-02-11T03:52:16.403Z,6.70
2023-02-11T03:54:49.258Z,6.77
2023-02-11T03:57:19.514Z,6.76
2023-02-11T04:00:00.157Z,6.85
2023-02-11T04:02:34.749Z,6.88
2023-02-11T04:05:05.366Z,6.88
2023-02-11T04:07:38.359Z,6.86
2023-02-11T04:10:10.169Z,6.85
2023-02-11T04:12:40.364Z,6.83
2023-02-11T04:15:11.411Z,6.77
2023-02-11T04:17:42.527Z,6.79
2023-02-11T04:20:14.235Z,6.86
2023-02-11T04:22:46.908Z,6.96
2023-02-11T04:25:16.950Z,7.10
2023-02-11T04:27:46.859Z,7.02
2023-02-11T04:30:16.986Z,6.95
2023-02-11T04:32:47.006Z,6.93
2023-02-11T04:35:17.022Z,6.98
2023-02-11T04:37:49.578Z,7.07
2023-02-11T04:40:20.089Z,7.12
2023-02-11T04:42:50.234Z,7.12
2023-02-11T04:45:20.228Z,7.19
2023-02-11T04:47:50.176Z,7.21
2023-02-11T04:50:20.609Z,7.15
2023-02-11T04:52:53.213Z,7.19
2023-02-11T04:55:23.283Z,7.20
2023-02-11T04:57:53.255Z,7.27
2023-02-11T05:00:23.658Z,7.25
2023-02-11T05:02:53.676Z,7.23
2023-02-11T05:05:23.647Z,7.25
2023-02-11T05:07:56.345Z,7.22
2023-02-11T05:10:26.462Z,7.19
2023-02-11T05:12:56.402Z,7.12
2023-02-11T05:15:26.474Z,7.18
2023-02-11T05:17:56.838Z,7.14
2023-02-11T05:20:26.808Z,7.15
2023-02-11T05:22:59.302Z,7.20
2023-02-11T05:25:29.306Z,7.15
2023-02-11T05:27:59.609Z,7.17
2023-02-11T05:30:29.692Z,7.16
2023-02-11T05:33:00.194Z,7.12
2023-02-11T05:35:30.315Z,7.09
2023-02-11T05:38:02.910Z,7.17
2023-02-11T05:40:32.920Z,7.12
2023-02-11T05:43:02.899Z,7.13
2023-02-11T05:45:33.091Z,7.15
2023-02-11T05:48:03.385Z,7.24
2023-02-11T05:50:34.436Z,7.25
2023-02-11T05:53:07.132Z,7.25
2023-02-11T05:55:37.724Z,7.21
2023-02-11T05:58:09.290Z,7.22
2023-02-11T06:00:42.141Z,7.28
2023-02-11T06:03:12.176Z,7.33
2023-02-11T06:05:42.236Z,7.31
2023-02-11T06:08:15.300Z,7.34
2023-02-11T06:10:47.879Z,7.34
2023-02-11T06:13:18.697Z,7.41
2023-02-11T06:15:49.087Z,7.42
2023-02-11T06:18:19.445Z,7.44
2023-02-11T06:20:49.605Z,7.41
2023-02-11T06:23:22.171Z,7.49
2023-02-11T06:25:52.370Z,7.52
2023-02-11T06:28:22.802Z,7.46
2023-02-11T06:30:52.811Z,7.45
2023-02-11T06:33:22.827Z,7.48
2023-02-11T06:35:53.083Z,7.52
2023-02-11T06:38:25.676Z,7.50
2023-02-11T06:40:55.586Z,7.56
2023-02-11T06:43:25.701Z,7.45
2023-02-11T06:45:56.969Z,7.51
2023-02-11T06:48:27.229Z,7.49
2023-02-11T06:50:57.232Z,7.50
2023-02-11T06:53:31.976Z,7.56
2023-02-11T06:56:05.878Z,7.58
2023-02-11T06:58:35.892Z,7.53
2023-02-11T07:01:08.214Z,7.55
2023-02-11T07:03:39.451Z,7.68
2023-02-11T07:06:15.668Z,7.66
2023-02-11T07:08:49.014Z,7.68
2023-02-11T07:11:21.184Z,7.65
2023-02-11T07:13:51.202Z,7.72
2023-02-11T07:16:22.402Z,7.79
2023-02-11T07:18:52.815Z,7.70
2023-02-11T07:21:25.626Z,7.75
2023-02-11T07:23:58.294Z,7.74
2023-02-11T07:26:29.086Z,7.77
2023-02-11T07:28:59.192Z,7.81
2023-02-11T07:31:31.034Z,7.81
2023-02-11T07:34:03.282Z,7.82
2023-02-11T07:36:34.592Z,7.87
2023-02-11T07:39:07.510Z,7.98
2023-02-11T07:41:38.156Z,7.98
2023-02-11T07:44:08.744Z,7.95
2023-02-11T07:46:43.139Z,7.91
2023-02-11T07:49:13.723Z,7.95
2023-02-11T07:51:43.648Z,7.99
2023-02-11T07:54:16.271Z,7.94
2023-02-11T07:56:46.280Z,7.93
2023-02-11T07:59:16.323Z,7.88
2023-02-11T08:01:46.421Z,7.88
2023-02-11T08:04:16.471Z,7.92
2023-02-11T08:06:46.981Z,7.97
2023-02-11T08:09:19.851Z,7.95
2023-02-11T08:11:49.840Z,7.95
2023-02-11T08:14:20.786Z,7.96
2023-02-11T08:16:51.103Z,8.06
2023-02-11T08:19:21.168Z,8.14
2023-02-11T08:21:51.158Z,8.21
2023-02-11T08:24:23.972Z,8.30
2023-02-11T08:26:53.908Z,8.33
2023-02-11T08:29:23.887Z,8.41
2023-02-11T08:31:54.058Z,8.45
2023-02-11T08:34:24.020Z,8.38
2023-02-11T08:36:54.140Z,8.41
2023-02-11T08:39:26.687Z,8.48
2023-02-11T08:41:58.316Z,8.41
2023-02-11T08:44:29.711Z,8.43
2023-02-11T08:46:59.710Z,8.45
2023-02-11T08:49:30.734Z,8.48
2023-02-11T08:52:04.344Z,8.55
2023-02-11T08:54:37.208Z,8.55
2023-02-11T08:57:07.913Z,8.50
2023-02-11T08:59:40.119Z,8.53
2023-02-11T09:02:14.282Z,8.63
2023-02-11T09:04:44.376Z,8.68
2023-02-11T09:07:14.651Z,8.66
2023-02-11T09:09:50.221Z,8.67
2023-02-11T09:12:20.317Z,8.65
2023-02-11T09:14:50.307Z,8.69
2023-02-11T09:17:20.360Z,8.73
2023-02-11T09:19:50.269Z,8.72
2023-02-11T09:22:20.453Z,8.72
2023-02-11T09:24:53.094Z,8.72
2023-02-11T09:27:23.079Z,8.70
2023-02-11T09:29:53.179Z,8.75
2023-02-11T09:32:23.104Z,8.77
2023-02-11T09:34:53.112Z,8.81
2023-02-11T09:37:23.051Z,8.81
2023-02-11T09:39:55.579Z,8.85
2023-02-11T09:42:43.410Z,8.88
2023-02-11T09:45:18.749Z,8.97
2023-02-11T09:47:52.575Z,9.03
2023-02-11T09:50:29.027Z,9.06
2023-02-11T09:53:03.046Z,9.11
2023-02-11T09:55:39.609Z,9.11
2023-02-11T09:58:15.978Z,9.08
2023-02-11T10:00:50.341Z,9.07
2023-02-11T10:03:45.343Z,9.08
2023-02-11T10:06:28.345Z,9.08
2023-02-11T10:09:10.602Z,9.05
2023-02-11T10:11:54.005Z,9.07
2023-02-11T10:14:43.875Z,9.09
2023-02-11T10:17:22.453Z,9.05
2023-02-11T10:20:05.631Z,9.06
2023-02-11T10:22:40.596Z,9.08
2023-02-11T10:25:23.010Z,9.16
2023-02-11T10:27:58.603Z,9.13
2023-02-11T10:30:34.010Z,9.15
2023-02-11T10:33:09.657Z,9.17
2023-02-11T10:35:42.576Z,9.18
2023-02-11T10:38:13.674Z,9.14
2023-02-11T10:40:44.081Z,9.22
2023-02-11T10:43:18.524Z,9.23
2023-02-11T10:45:52.776Z,9.22
2023-02-11T10:48:42.488Z,9.17
2023-02-11T10:51:21.455Z,9.15
2023-02-11T10:53:53.479Z,9.07
2023-02-11T10:56:33.315Z,9.13
2023-02-11T10:59:10.437Z,9.20
2023-02-11T11:01:46.765Z,9.13
2023-02-11T11:04:37.576Z,9.13
2023-02-11T11:07:21.148Z,9.08
2023-02-11T11:09:55.053Z,9.08
2023-02-11T11:12:40.290Z,9.10
2023-02-11T11:15:23.714Z,9.12
2023-02-11T11:18:21.326Z,9.14
2023-02-11T11:21:00.183Z,9.14
2023-02-11T11:23:32.633Z,9.07
2023-02-11T11:26:07.152Z,9.09
2023-02-11T11:28:43.697Z,9.13
2023-02-11T11:31:23.271Z,9.23
2023-02-11T11:33:56.790Z,9.24
2023-02-11T11:36:35.292Z,9.26
2023-02-11T11:39:20.291Z,9.28
2023-02-11T11:41:56.577Z,9.26
2023-02-11T11:44:30.104Z,9.33
2023-02-11T11:47:29.983Z,9.44
2023-02-11T11:50:28.103Z,9.48
2023-02-11T11:53:04.670Z,9.55
2023-02-11T11:55:44.516Z,9.57
2023-02-11T11:58:19.347Z,9.57
2023-02-11T12:00:57.806Z,9.64
2023-02-11T12:04:01.475Z,9.67
2023-02-11T12:06:43.202Z,9.67
2023-02-11T12:09:23.041Z,9.67
2023-02-11T12:12:18.057Z,9.75
2023-02-11T12:14:59.828Z,9.79
2023-02-11T12:17:53.238Z,9.78
2023-02-11T12:20:34.950Z,9.67
2023-02-11T12:23:24.282Z,9.70
2023-02-11T12:26:00.866Z,9.74
2023-02-11T12:28:41.871Z,9.78
2023-02-11T12:31:26.938Z,9.82
2023-02-11T12:34:16.096Z,9.86
2023-02-11T12:37:02.813Z,9.88
2023-02-11T12:39:46.093Z,9.90
2023-02-11T12:42:53.895Z,9.89
2023-02-11T12:45:41.259Z,9.93
2023-02-11T12:48:25.651Z,9.95
2023-02-11T12:51:03.864Z,10.02
2023-02-11T12:53:55.110Z,9.97
2023-02-11T12:56:31.277Z,9.96
2023-02-11T12:59:05.901Z,9.97
2023-02-11T13:01:42.867Z,10.00
2023-02-11T13:04:22.782Z,10.05
2023-02-11T13:06:56.676Z,10.02
2023-02-11T13:09:35.185Z,9.97
2023-02-11T13:12:22.744Z,9.92
2023-02-11T13:14:55.199Z,9.91
2023-02-11T13:17:30.832Z,9.86
2023-02-11T13:20:05.690Z,9.90
2023-02-11T13:22:41.635Z,9.89
2023-02-11T13:25:28.388Z,9.87
2023-02-11T13:28:05.864Z,9.94
2023-02-11T13:30:39.648Z,9.98
2023-02-11T13:33:33.449Z,10.00
2023-02-11T13:36:21.507Z,10.05
2023-02-11T13:39:01.090Z,9.97
2023-02-11T13:41:40.727Z,10.01
2023-02-11T13:44:26.748Z,10.02
2023-02-11T13:47:08.505Z,10.04
2023-02-11T13:49:41.231Z,10.06
2023-02-11T13:52:26.929Z,10.05
2023-02-11T13:54:59.698Z,10.03
2023-02-11T13:57:42.893Z,10.03
2023-02-11T14:00:52.200Z,10.07
2023-02-11T14:03:47.000Z,10.07
2023-02-11T14:06:33.240Z,10.01
2023-02-11T14:09:11.699Z,9.93
2023-02-11T14:11:55.416Z,9.89
2023-02-11T14:14:29.572Z,9.89
2023-02-11T14:17:36.034Z,9.94
2023-02-11T14:20:28.706Z,9.90
2023-02-11T14:22:59.494Z,9.94
2023-02-11T14:25:30.624Z,9.95
2023-02-11T14:28:09.763Z,9.98
2023-02-11T14:30:53.969Z,10.03
2023-02-11T14:34:06.001Z,10.06
2023-02-11T14:36:54.769Z,10.06
2023-02-11T14:39:48.082Z,10.03
2023-02-11T14:42:22.629Z,10.02
2023-02-11T14:44:53.721Z,10.02
2023-02-11T14:47:31.093Z,10.08
2023-02-11T14:50:01.203Z,10.14
2023-02-11T14:52:33.467Z,10.12
2023-02-11T14:55:18.021Z,10.13
2023-02-11T14:57:51.157Z,10.07
2023-02-11T15:00:24.061Z,10.08
2023-02-11T15:02:57.112Z,10.11
2023-02-11T15:05:30.323Z,10.10
2023-02-11T15:08:02.689Z,10.12
2023-02-11T15:10:36.299Z,10.11
2023-02-11T15:13:07.912Z,10.11
2023-02-11T15:15:38.798Z,10.15
2023-02-11T15:18:12.216Z,10.17
2023-02-11T15:20:44.514Z,10.21
2023-02-11T15:23:24.552Z,10.23
2023-02-11T15:25:56.309Z,10.24
2023-02-11T15:28:29.051Z,10.22
2023-02-11T15:31:08.180Z,10.20
2023-02-11T15:33:40.873Z,10.20
2023-02-11T15:36:14.813Z,10.21
2023-02-11T15:38:45.149Z,10.18
2023-02-11T15:41:37.707Z,10.17
2023-02-11T15:44:08.252Z,10.19
2023-02-11T15:46:42.295Z,10.18
2023-02-11T15:49:21.527Z,10.16
2023-02-11T15:51:52.023Z,10.12
2023-02-11T15:54:23.943Z,10.09
2023-02-11T15:57:02.791Z,10.08
2023-02-11T15:59:38.244Z,10.07
2023-02-11T16:02:11.366Z,10.10
2023-02-11T16:04:53.942Z,10.09
2023-02-11T16:07:42.881Z,10.13
2023-02-11T16:10:21.441Z,10.06
2023-02-11T16:13:04.650Z,10.07
2023-02-11T16:15:51.097Z,10.08
2023-02-11T16:18:39.070Z,10.09
2023-02-11T16:21:19.001Z,10.11
2023-02-11T16:23:55.969Z,10.07
2023-02-11T16:26:31.961Z,10.07
2023-02-11T16:29:10.637Z,10.06
2023-02-11T16:31:43.544Z,10.10
2023-02-11T16:34:18.736Z,10.14
2023-02-11T16:36:52.998Z,10.17
2023-02-11T16:39:24.430Z,10.15
2023-02-11T16:41:56.221Z,10.11
2023-02-11T16:44:26.164Z,10.11
2023-02-11T16:46:56.975Z,10.12
2023-02-11T16:49:30.627Z,10.12
2023-02-11T16:52:09.250Z,10.15
2023-02-11T16:54:39.281Z,10.18
2023-02-11T16:57:16.362Z,10.23
2023-02-11T16:59:46.695Z,10.23
2023-02-11T17:02:23.616Z,10.26
2023-02-11T17:04:55.198Z,10.30
2023-02-11T17:07:28.011Z,10.29
2023-02-11T17:09:58.156Z,10.29
2023-02-11T17:12:28.414Z,10.32
2023-02-11T17:14:58.475Z,10.33
2023-02-11T17:17:30.067Z,10.36
2023-02-11T17:20:00.155Z,10.37
2023-02-11T17:22:32.866Z,10.35
2023-02-11T17:25:03.059Z,10.37
2023-02-11T17:27:33.374Z,10.38
2023-02-11T17:30:03.532Z,10.39
2023-02-11T17:32:33.538Z,10.33
2023-02-11T17:35:03.579Z,10.32
2023-02-11T17:37:36.316Z,10.32
2023-02-11T17:40:07.018Z,10.34
2023-02-11T17:42:37.214Z,10.41
2023-02-11T17:45:08.582Z,10.41
2023-02-11T17:47:39.153Z,10.40
2023-02-11T17:50:13.655Z,10.42
2023-02-11T17:52:46.487Z,10.47
2023-02-11T17:55:16.675Z,10.44
2023-02-11T17:57:46.996Z,10.46
2023-02-11T18:00:18.496Z,10.48
2023-02-11T18:02:48.837Z,10.45
2023-02-11T18:05:19.324Z,10.47
2023-02-11T18:07:51.976Z,10.48
2023-02-11T18:10:22.209Z,10.48
2023-02-11T18:12:52.564Z,10.48
2023-02-11T18:15:22.639Z,10.53
2023-02-11T18:17:53.985Z,10.54
2023-02-11T18:20:24.246Z,10.54
2023-02-11T18:22:56.887Z,10.52
2023-02-11T18:25:26.870Z,10.54
2023-02-11T18:27:56.837Z,10.55
2023-02-11T18:30:31.326Z,10.54
2023-02-11T18:33:01.559Z,10.51
2023-02-11T18:35:31.611Z,10.51
2023-02-11T18:38:04.333Z,10.55
2023-02-11T18:40:34.516Z,10.53
2023-02-11T18:43:04.539Z,10.50
2023-02-11T18:45:34.658Z,10.41
2023-02-11T18:48:05.384Z,10.43
2023-02-11T18:50:35.488Z,10.44
2023-02-11T18:53:08.120Z,10.45
2023-02-11T18:55:38.135Z,10.42
2023-02-11T18:58:10.721Z,10.41
2023-02-11T19:00:44.273Z,10.45
2023-02-11T19:03:14.406Z,10.47
2023-02-11T19:05:45.222Z,10.45
2023-02-11T19:08:18.533Z,10.44
2023-02-11T19:10:50.201Z,10.43
2023-02-11T19:13:20.190Z,10.44
2023-02-11T19:15:50.706Z,10.39
2023-02-11T19:18:20.987Z,10.36
2023-02-11T19:20:51.059Z,10.34
2023-02-11T19:23:23.748Z,10.36
2023-02-11T19:25:53.988Z,10.37
2023-02-11T19:28:24.268Z,10.38
2023-02-11T19:30:54.569Z,10.37
2023-02-11T19:33:24.835Z,10.34
2023-02-11T19:35:54.996Z,10.34
2023-02-11T19:38:27.727Z,10.39
2023-02-11T19:41:01.370Z,10.42
2023-02-11T19:43:31.532Z,10.44
2023-02-11T19:46:04.731Z,10.42
2023-02-11T19:48:35.193Z,10.40
2023-02-11T19:51:13.746Z,10.34
2023-02-11T19:53:47.550Z,10.37
2023-02-11T19:56:20.483Z,10.35
2023-02-11T19:58:51.341Z,10.37
2023-02-11T20:01:23.865Z,10.38
2023-02-11T20:03:55.671Z,10.38
2023-02-11T20:06:28.150Z,10.37
2023-02-11T20:09:02.824Z,10.41
2023-02-11T20:11:34.407Z,10.46
2023-02-11T20:14:04.752Z,10.49
2023-02-11T20:16:47.611Z,10.47
2023-02-11T20:19:19.615Z,10.46
2023-02-11T20:21:50.956Z,10.45
2023-02-11T20:24:24.142Z,10.42
2023-02-11T20:26:55.973Z,10.43
2023-02-11T20:29:27.451Z,10.44
2023-02-11T20:31:57.708Z,10.42
2023-02-11T20:34:27.827Z,10.40
2023-02-11T20:36:57.878Z,10.42
2023-02-11T20:39:30.446Z,10.48
2023-02-11T20:42:00.507Z,10.49
2023-02-11T20:44:30.523Z,10.49
2023-02-11T20:47:00.608Z,10.50
2023-02-11T20:49:30.758Z,10.54
2023-02-11T20:52:01.200Z,10.55
2023-02-11T20:54:33.794Z,10.55
2023-02-11T20:57:03.924Z,10.56
2023-02-11T20:59:34.117Z,10.54
2023-02-11T21:02:04.169Z,10.54
2023-02-11T21:04:34.497Z,10.56
2023-02-11T21:07:05.106Z,10.58
2023-02-11T21:09:38.313Z,10.60
2023-02-11T21:12:09.277Z,10.59
2023-02-11T21:14:39.275Z,10.57
2023-02-11T21:17:09.261Z,10.56
2023-02-11T21:19:39.422Z,10.53
2023-02-11T21:22:09.350Z,10.54
2023-02-11T21:24:41.968Z,10.54
2023-02-11T21:27:11.926Z,10.46
2023-02-11T21:29:53.428Z,10.42
2023-02-11T21:32:26.164Z,10.42
2023-02-11T21:34:56.877Z,10.39
2023-02-11T21:37:27.562Z,10.38
2023-02-11T21:40:00.138Z,10.44
2023-02-11T21:42:30.160Z,10.44
2023-02-11T21:45:00.360Z,10.40
2023-02-11T21:47:30.476Z,10.39
2023-02-11T21:50:00.558Z,10.40
2023-02-11T21:52:30.506Z,10.42
2023-02-11T21:55:03.152Z,10.46
2023-02-11T21:57:33.693Z,10.47
2023-02-11T22:00:03.720Z,10.48
2023-02-11T22:02:35.611Z,10.44
2023-02-11T22:05:05.712Z,10.38
2023-02-11T22:07:37.848Z,10.37
2023-02-11T22:10:12.200Z,10.41
2023-02-11T22:12:42.505Z,10.41
2023-02-11T22:15:13.281Z,10.39
2023-02-11T22:17:43.257Z,10.37
2023-02-11T22:20:14.202Z,10.33
2023-02-11T22:22:44.328Z,10.34
2023-02-11T22:25:16.987Z,10.37
2023-02-11T22:27:46.959Z,10.35
2023-02-11T22:30:17.276Z,10.39
2023-02-11T22:32:47.509Z,10.43
2023-02-11T22:35:17.716Z,10.43
2023-02-11T22:37:47.828Z,10.37
2023-02-11T22:40:20.505Z,10.37
2023-02-11T22:42:50.620Z,10.37
2023-02-11T22:45:20.608Z,10.35
2023-02-11T22:47:50.644Z,10.33
2023-02-11T22:50:20.785Z,10.35
2023-02-11T22:52:50.825Z,10.36
2023-02-11T22:55:23.349Z,10.37
2023-02-11T22:57:53.404Z,10.41
2023-02-11T23:00:24.306Z,10.41
2023-02-11T23:02:54.700Z,10.40
2023-02-11T23:05:24.670Z,10.37
2023-02-11T23:07:54.670Z,10.36
2023-02-11T23:10:27.291Z,10.39
2023-02-11T23:12:57.356Z,10.37
2023-02-11T23:15:27.466Z,10.34
2023-02-11T23:17:57.507Z,10.36
2023-02-11T23:20:27.562Z,10.33
2023-02-11T23:22:57.651Z,10.32
2023-02-11T23:25:30.213Z,10.32
2023-02-11T23:28:00.520Z,10.31
2023-02-11T23:30:31.563Z,10.28
2023-02-11T23:33:01.595Z,10.24
2023-02-11T23:35:31.830Z,10.26
2023-02-11T23:38:01.864Z,10.29
2023-02-11T23:40:34.629Z,10.34
2023-02-11T23:43:04.605Z,10.31
2023-02-11T23:45:35.013Z,10.29
2023-02-11T23:48:05.160Z,10.33
2023-02-11T23:50:35.900Z,10.32
2023-02-11T23:53:06.274Z,10.29
2023-02-11T23:55:40.025Z,10.23
2023-02-11T23:58:10.625Z,10.20
